| time (UTC) | temp C | wind direction | speed KPH | gust KPH | rain 1hr cm | rain 24hr cm | rain mn cm | humidity % | barometer mb |
| 20260504050105 | -17 | 0.0 | 1.6 | 0.00 | 0.00 | 0.00 | |||
| 20260504045020 | -17 | 0.0 | 1.6 | 0.00 | 0.00 | 0.00 | |||
| 20260504044021 | -17 | 0.0 | 0.0 | 0.00 | 0.00 | 0.00 | |||
| 20260504043042 | -17 | 0.0 | 1.6 | 0.00 | 0.00 | 0.00 | |||
| 20260504042020 | -17 | 0.0 | 0.0 | 0.00 | 0.00 | 0.00 | |||
| 20260504041020 | -17 | 0.0 | 0.0 | 0.00 | 0.00 | 0.00 | |||
| 20260504040021 | -17 | 0.0 | 1.6 | 0.00 | 0.00 | 0.00 | |||
| 20260504035040 | -17 | 0.0 | 3.2 | 0.00 | 0.00 | 0.00 | |||
| 20260504034020 | -17 | 0.0 | 3.2 | 0.00 | 0.00 | 0.00 | |||
| 20260504033020 | -17 | 0.0 | 1.6 | 0.00 | 0.00 | 0.00 | |||
| 20260504032020 | -17 | 0.0 | 1.6 | 0.00 | 0.00 | 0.00 | |||
| 20260504031020 | -17 | 0.0 | 8.0 | 0.00 | 0.00 | 0.00 | |||
| 20260504030020 | -17 | 0.0 | 6.4 | 0.00 | 0.00 | 0.00 | |||
| 20260504025021 | -17 | 0.0 | 6.4 | 0.00 | 0.00 | 0.00 | |||
| 20260504024020 | -17 | 0.0 | 1.6 | 0.00 | 0.00 | 0.00 | |||
| 20260504023019 | -17 | 0.0 | 4.8 | 0.00 | 0.00 | 0.00 | |||
| 20260504022020 | -17 | 0 | 1.6 | 6.4 | 0.00 | 0.00 | 0.00 | ||
| 20260504021021 | -17 | 0 | 1.6 | 8.0 | 0.00 | 0.00 | 0.00 | ||
| 20260504020021 | -17 | 0.0 | 6.4 | 0.00 | 0.00 | 0.00 | |||
| 20260504015020 | -17 | 0.0 | 3.2 | 0.00 | 0.00 | 0.00 | |||
| 20260504014020 | -17 | 0 | 1.6 | 9.7 | 0.00 | 0.00 | 0.00 | ||
| 20260504013020 | -17 | 0 | 1.6 | 8.0 | 0.00 | 0.00 | 0.00 | ||
| 20260504012020 | -17 | 0.0 | 8.0 | 0.00 | 0.00 | 0.00 | |||
| 20260504011020 | -17 | 45 | 1.6 | 12.9 | 0.00 | 0.00 | 0.00 | ||
| 20260504010100 | -17 | 0 | 1.6 | 9.7 | 0.00 | 0.00 | 0.00 | ||
| 20260504005020 | -17 | 0 | 1.6 | 8.0 | 0.00 | 0.00 | 0.00 | ||
| 20260504004017 | -17 | 45 | 1.6 | 9.7 | 0.00 | 0.00 | 0.00 | ||
| 20260504003020 | -17 | 0.0 | 3.2 | 0.00 | 0.00 | 0.00 | |||
| 20260504002020 | -17 | 45 | 1.6 | 9.7 | 0.00 | 0.00 | 0.00 | ||
| 20260504001040 | -17 | 45 | 1.6 | 8.0 | 0.00 | 0.00 | 0.00 | ||
| 20260504000020 | -17 | 45 | 3.2 | 9.7 | 0.00 | 0.00 | 0.00 | ||
| 20260503235020 | -17 | 45 | 3.2 | 9.7 | 0.00 | 0.00 | 0.00 | ||
| 20260503234020 | -17 | 45 | 3.2 | 9.7 | 0.00 | 0.00 | 0.00 | ||
| 20260503233019 | -17 | 45 | 1.6 | 8.0 | 0.00 | 0.00 | 0.00 | ||
| 20260503232020 | -17 | 45 | 3.2 | 9.7 | 0.00 | 0.00 | 0.00 | ||
| 20260503231019 | -17 | 45 | 6.4 | 12.9 | 0.00 | 0.00 | 0.00 | ||
| 20260503230039 | -17 | 45 | 1.6 | 9.7 | 0.00 | 0.00 | 0.00 | ||
| 20260503225019 | -17 | 45 | 1.6 | 8.0 | 0.00 | 0.00 | 0.00 | ||
| 20260503224019 | -17 | 45 | 1.6 | 11.3 | 0.00 | 0.00 | 0.00 | ||
| 20260503223019 | -17 | 45 | 1.6 | 9.7 | 0.00 | 0.00 | 0.00 | ||
| 20260503222019 | -17 | 45 | 6.4 | 11.3 | 0.00 | 0.00 | 0.00 | ||
| 20260503221020 | -17 | 45 | 6.4 | 16.1 | 0.00 | 0.00 | 0.00 | ||
| 20260503220019 | -17 | 45 | 6.4 | 16.1 | 0.00 | 0.00 | 0.00 | ||
| 20260503215041 | -17 | 45 | 9.7 | 16.1 | 0.00 | 0.00 | 0.00 | ||
| 20260503214041 | -17 | 45 | 6.4 | 14.5 | 0.00 | 0.00 | 0.00 | ||
| 20260503213021 | -17 | 45 | 6.4 | 14.5 | 0.00 | 0.00 | 0.00 | ||
| 20260503212019 | -17 | 0 | 4.8 | 11.3 | 0.00 | 0.00 | 0.00 | ||
| 20260503211019 | -17 | 45 | 8.0 | 14.5 | 0.00 | 0.00 | 0.00 | ||
| 20260503210019 | -17 | 45 | 8.0 | 11.3 | 0.00 | 0.00 | 0.00 | ||
| 20260503205020 | -17 | 45 | 8.0 | 14.5 | 0.00 | 0.00 | 0.00 | ||
| 20260503204100 | -17 | 45 | 11.3 | 24.1 | 0.00 | 0.00 | 0.00 | ||
| 20260503203020 | -17 | 45 | 9.7 | 19.3 | 0.00 | 0.00 | 0.00 | ||
| 20260503202019 | -17 | 45 | 8.0 | 14.5 | 0.00 | 0.00 | 0.00 | ||
| 20260503201017 | -17 | 45 | 6.4 | 14.5 | 0.00 | 0.00 | 0.00 | ||
| 20260503200019 | -17 | 45 | 8.0 | 14.5 | 0.00 | 0.00 | 0.00 | ||
| 20260503195042 | -17 | 45 | 8.0 | 16.1 | 0.00 | 0.00 | 0.00 | ||
| 20260503194019 | -17 | 45 | 8.0 | 16.1 | 0.00 | 0.00 | 0.00 | ||
| 20260503193020 | -17 | 45 | 8.0 | 19.3 | 0.00 | 0.00 | 0.00 | ||
| 20260503192039 | -17 | 45 | 8.0 | 16.1 | 0.00 | 0.00 | 0.00 | ||
| 20260503191020 | -17 | 45 | 8.0 | 16.1 | 0.00 | 0.00 | 0.00 | ||
| 20260503190020 | -17 | 45 | 8.0 | 16.1 | 0.00 | 0.00 | 0.00 | ||
| 20260503185019 | -17 | 45 | 6.4 | 14.5 | 0.00 | 0.00 | 0.00 | ||
| 20260503184021 | -17 | 45 | 8.0 | 16.1 | 0.00 | 0.00 | 0.00 | ||
| 20260503183041 | -17 | 45 | 8.0 | 17.7 | 0.00 | 0.00 | 0.00 | ||
| 20260503182019 | -17 | 45 | 8.0 | 14.5 | 0.00 | 0.00 | 0.00 | ||
| 20260503181019 | -17 | 45 | 8.0 | 16.1 | 0.00 | 0.00 | 0.00 | ||
| 20260503180041 | -17 | 45 | 8.0 | 17.7 | 0.00 | 0.00 | 0.00 | ||
| 20260503175040 | -17 | 45 | 6.4 | 14.5 | 0.00 | 0.00 | 0.00 | ||
| 20260503174119 | -17 | 45 | 8.0 | 16.1 | 0.00 | 0.00 | 0.00 | ||
| 20260503173020 | -17 | 45 | 6.4 | 16.1 | 0.00 | 0.00 | 0.00 | ||
| 20260503172039 | -17 | 45 | 4.8 | 9.7 | 0.00 | 0.00 | 0.00 | ||
| 20260503171019 | -17 | 45 | 8.0 | 17.7 | 0.00 | 0.00 | 0.00 | ||
| 20260503131019 | -17 | 0.0 | 1.6 | 0.00 | 0.00 | 0.00 | |||
| 20260503081020 | -17 | 45 | 1.6 | 9.7 | 0.00 | 0.00 | 0.00 | ||
| 20260503072019 | -17 | 45 | 3.2 | 11.3 | 0.00 | 0.00 | 0.00 | ||
| 20260503071019 | -17 | 45 | 1.6 | 11.3 | 0.00 | 0.00 | 0.00 |